Time;durP1;ratioP1;P1;durP2;ratioP2;P2;SDS_P1;SDS_P2;PMS_P1;PMS_P2;Temp;Humidity;BMP_temperature;BMP_pressure;BME280_temperature;BME280_humidity;BME280_pressure;Samples;Min_cycle;Max_cycle;Signal;HPM_P1;HPM_P2
2023/04/21 00:00:03;;;;;;;11.83;6.10;;;10.90;99.90;;;;;;5180568;28;20530;-48
2023/04/21 00:02:38;;;;;;;8.60;5.13;;;10.80;99.90;;;;;;5173289;28;20315;-50
2023/04/21 00:05:09;;;;;;;18.90;5.63;;;10.80;99.90;;;;;;5181708;28;20508;-49
2023/04/21 00:07:40;;;;;;;9.40;6.10;;;10.80;99.90;;;;;;5177788;28;20857;-50
2023/04/21 00:10:11;;;;;;;6.00;5.07;;;10.80;99.90;;;;;;5180816;28;20776;-50
2023/04/21 00:12:42;;;;;;;15.00;6.37;;;10.80;99.90;;;;;;5181194;28;20438;-48
2023/04/21 00:15:12;;;;;;;16.63;6.10;;;10.80;99.90;;;;;;5181713;28;20180;-50
2023/04/21 00:17:43;;;;;;;16.40;5.77;;;10.70;99.90;;;;;;5176327;28;20345;-49
2023/04/21 00:20:14;;;;;;;7.07;5.17;;;10.70;99.90;;;;;;5182549;28;20242;-51
2023/04/21 00:22:44;;;;;;;14.80;6.87;;;10.70;99.90;;;;;;5174901;28;20639;-50
2023/04/21 00:25:15;;;;;;;17.17;6.40;;;10.60;99.90;;;;;;5179693;28;20213;-49
2023/04/21 00:27:46;;;;;;;12.50;5.80;;;10.60;99.90;;;;;;5182910;28;20232;-48
2023/04/21 00:30:16;;;;;;;14.00;6.20;;;10.60;99.90;;;;;;5175360;28;20244;-49
2023/04/21 00:32:47;;;;;;;15.57;6.50;;;10.50;99.90;;;;;;5176979;28;20184;-49
2023/04/21 00:35:18;;;;;;;17.27;6.50;;;10.60;99.90;;;;;;5174649;28;20606;-49
2023/04/21 00:37:49;;;;;;;17.67;6.20;;;10.60;99.90;;;;;;5183483;28;20334;-49
2023/04/21 00:40:19;;;;;;;20.17;6.80;;;10.50;99.90;;;;;;5197910;28;20185;-49
2023/04/21 00:42:50;;;;;;;20.93;6.30;;;10.40;99.90;;;;;;5176674;28;20511;-49
2023/04/21 00:45:20;;;;;;;13.53;5.77;;;10.40;99.90;;;;;;5179524;28;20280;-49
2023/04/21 00:47:51;;;;;;;11.80;6.03;;;10.50;99.90;;;;;;5168484;28;20208;-51
2023/04/21 00:50:22;;;;;;;22.33;6.60;;;10.40;99.90;;;;;;5178799;28;20176;-48
2023/04/21 00:52:53;;;;;;;24.43;6.90;;;10.30;99.90;;;;;;5173887;28;20177;-51
2023/04/21 00:55:24;;;;;;;13.27;6.40;;;10.30;99.90;;;;;;5172280;28;20546;-49
2023/04/21 00:57:55;;;;;;;14.53;6.70;;;10.30;99.90;;;;;;5164307;28;20452;-50
2023/04/21 01:00:26;;;;;;;13.80;6.63;;;10.30;99.90;;;;;;5189713;28;20431;-48
2023/04/21 01:02:58;;;;;;;13.10;7.07;;;10.30;99.90;;;;;;5164740;28;20330;-49
2023/04/21 01:05:30;;;;;;;12.83;7.17;;;10.30;99.90;;;;;;5177641;28;20735;-50
2023/04/21 01:08:01;;;;;;;16.20;6.83;;;10.30;99.90;;;;;;5177284;28;20593;-50
2023/04/21 01:10:32;;;;;;;21.83;7.17;;;10.30;99.90;;;;;;5177498;28;20488;-49
2023/04/21 01:13:02;;;;;;;8.37;6.50;;;10.30;99.90;;;;;;5170686;28;20582;-48
2023/04/21 01:15:33;;;;;;;14.60;7.07;;;10.30;99.90;;;;;;5181623;28;20267;-49
2023/04/21 01:18:04;;;;;;;24.90;7.50;;;10.30;99.90;;;;;;5182407;28;20680;-50
2023/04/21 01:20:35;;;;;;;10.80;7.20;;;10.30;99.90;;;;;;5179448;28;20203;-49
2023/04/21 01:23:08;;;;;;;17.50;7.30;;;10.20;99.90;;;;;;5176814;28;20187;-49
2023/04/21 01:25:39;;;;;;;12.83;7.70;;;10.30;99.90;;;;;;5195335;28;20185;-51
2023/04/21 01:28:09;;;;;;;14.40;7.87;;;10.20;99.90;;;;;;5183000;28;20451;-52
2023/04/21 01:30:40;;;;;;;11.43;6.90;;;10.20;99.90;;;;;;5173369;28;20274;-49
2023/04/21 01:33:11;;;;;;;18.20;8.07;;;10.20;99.90;;;;;;5178226;28;20252;-51
2023/04/21 01:35:41;;;;;;;16.77;7.57;;;10.20;99.90;;;;;;5169125;28;20197;-50
2023/04/21 01:38:12;;;;;;;12.00;7.30;;;10.20;99.90;;;;;;5173390;28;20204;-49
2023/04/21 01:40:45;;;;;;;28.33;8.03;;;10.20;99.90;;;;;;5170789;28;20591;-50
2023/04/21 01:43:18;;;;;;;8.83;7.10;;;10.20;99.90;;;;;;5172589;28;20295;-50
2023/04/21 01:45:49;;;;;;;16.77;7.10;;;10.20;99.90;;;;;;5176783;28;20445;-53
2023/04/21 01:48:20;;;;;;;18.03;7.40;;;10.10;99.90;;;;;;5179767;28;20459;-49
2023/04/21 01:50:50;;;;;;;15.70;8.00;;;10.20;99.90;;;;;;5172701;28;20427;-49
2023/04/21 01:53:21;;;;;;;13.40;7.57;;;10.10;99.90;;;;;;5177377;28;20700;-50
2023/04/21 01:55:52;;;;;;;10.97;8.20;;;10.10;99.90;;;;;;5174745;28;20222;-50
2023/04/21 01:58:22;;;;;;;12.83;7.50;;;10.10;99.90;;;;;;5173044;28;20197;-50
2023/04/21 02:00:53;;;;;;;19.17;8.60;;;10.10;99.90;;;;;;5168952;28;20173;-49
2023/04/21 02:03:23;;;;;;;16.80;7.67;;;10.10;99.90;;;;;;5178729;28;20270;-50
2023/04/21 02:05:54;;;;;;;17.17;7.70;;;10.00;99.90;;;;;;5179387;28;20195;-51
2023/04/21 02:08:24;;;;;;;10.43;6.60;;;10.10;99.90;;;;;;5179569;28;20199;-49
2023/04/21 02:10:55;;;;;;;10.47;7.47;;;10.00;99.90;;;;;;5181746;28;20207;-48
2023/04/21 02:13:26;;;;;;;11.40;7.83;;;10.00;99.90;;;;;;5175047;28;20242;-51
2023/04/21 02:15:56;;;;;;;18.57;8.10;;;10.00;99.90;;;;;;5181918;28;20269;-49
2023/04/21 02:18:28;;;;;;;14.03;7.73;;;9.90;99.90;;;;;;5176270;28;20213;-48
2023/04/21 02:20:59;;;;;;;16.03;8.43;;;9.90;99.90;;;;;;5174001;28;20177;-51
2023/04/21 02:23:29;;;;;;;12.53;8.20;;;9.90;99.90;;;;;;5176213;28;20517;-51
2023/04/21 02:26:00;;;;;;;20.13;9.37;;;9.90;99.90;;;;;;5172293;28;20173;-50
2023/04/21 02:28:30;;;;;;;16.93;9.10;;;9.90;99.90;;;;;;5171552;28;20579;-50
2023/04/21 02:31:01;;;;;;;9.77;7.57;;;9.90;99.90;;;;;;5176095;28;20181;-48
2023/04/21 02:33:32;;;;;;;16.77;8.30;;;9.90;99.90;;;;;;5177205;28;20187;-49
2023/04/21 02:36:03;;;;;;;16.47;9.07;;;9.90;99.90;;;;;;5175475;28;20180;-49
2023/04/21 02:38:34;;;;;;;13.40;7.97;;;9.90;99.90;;;;;;5174465;28;20204;-50
2023/04/21 02:41:04;;;;;;;12.77;8.40;;;9.80;99.90;;;;;;5174531;28;20540;-48
2023/04/21 02:43:35;;;;;;;11.40;7.80;;;9.80;99.90;;;;;;5181311;28;20549;-52
2023/04/21 02:46:06;;;;;;;9.50;8.40;;;9.80;99.90;;;;;;5169092;28;20196;-49
2023/04/21 02:48:37;;;;;;;17.23;7.90;;;9.80;99.90;;;;;;5168376;28;20208;-50
2023/04/21 02:51:14;;;;;;;10.47;8.33;;;9.80;99.90;;;;;;5175282;28;20911;-49
2023/04/21 02:53:45;;;;;;;18.73;8.70;;;9.80;99.90;;;;;;5171456;28;20271;-50
2023/04/21 02:56:15;;;;;;;11.83;8.77;;;9.70;99.90;;;;;;5173117;28;20523;-50
2023/04/21 02:58:46;;;;;;;21.87;8.33;;;9.70;99.90;;;;;;5179663;28;20211;-51
2023/04/21 03:01:16;;;;;;;33.00;9.00;;;9.70;99.90;;;;;;5180246;28;20657;-50
2023/04/21 03:03:47;;;;;;;12.97;8.43;;;9.60;99.90;;;;;;5175667;28;20208;-51
2023/04/21 03:06:17;;;;;;;12.40;8.20;;;9.70;99.90;;;;;;5184525;28;20180;-49
2023/04/21 03:08:48;;;;;;;15.10;8.43;;;9.60;99.90;;;;;;5175391;28;20798;-49
2023/04/21 03:11:19;;;;;;;18.13;8.20;;;9.60;99.90;;;;;;5179302;28;20184;-51
2023/04/21 03:13:49;;;;;;;18.13;9.40;;;9.60;99.90;;;;;;5173821;28;20185;-49
2023/04/21 03:16:20;;;;;;;16.90;9.67;;;9.60;99.90;;;;;;5180818;28;20236;-50
2023/04/21 03:18:51;;;;;;;16.17;9.20;;;9.60;99.90;;;;;;5178227;28;20685;-51
2023/04/21 03:21:21;;;;;;;15.90;8.73;;;9.60;99.90;;;;;;5179600;28;20176;-49
2023/04/21 03:23:52;;;;;;;13.03;8.20;;;9.60;99.90;;;;;;5185502;28;20212;-52
2023/04/21 03:26:22;;;;;;;13.13;9.40;;;9.50;99.90;;;;;;5173726;28;20188;-51
2023/04/21 03:28:53;;;;;;;12.27;8.70;;;9.50;99.90;;;;;;5173059;28;20287;-50
2023/04/21 03:31:24;;;;;;;15.80;8.70;;;9.50;99.90;;;;;;5174037;28;20636;-53
2023/04/21 03:33:54;;;;;;;20.80;8.80;;;9.40;99.90;;;;;;5186707;28;20667;-50
2023/04/21 03:36:25;;;;;;;15.87;8.80;;;9.40;99.90;;;;;;5183909;28;20263;-50
2023/04/21 03:38:57;;;;;;;15.60;9.10;;;9.30;99.90;;;;;;5175774;28;20232;-52
2023/04/21 03:41:28;;;;;;;19.03;8.63;;;9.30;99.90;;;;;;5177319;28;20223;-50
2023/04/21 03:43:58;;;;;;;13.40;9.80;;;9.30;99.90;;;;;;5175621;28;20498;-50
2023/04/21 03:46:29;;;;;;;11.60;8.40;;;9.30;99.90;;;;;;5179945;28;20181;-50
2023/04/21 03:48:59;;;;;;;16.67;9.63;;;9.30;99.90;;;;;;5180821;28;20279;-50
2023/04/21 03:51:31;;;;;;;12.23;9.13;;;9.20;99.90;;;;;;5176645;28;20200;-50
2023/04/21 03:54:01;;;;;;;13.47;9.07;;;9.20;99.90;;;;;;5185327;28;20180;-51
2023/04/21 03:56:32;;;;;;;14.17;9.40;;;9.20;99.90;;;;;;5176272;28;20871;-51
2023/04/21 03:59:03;;;;;;;12.40;8.80;;;9.20;99.90;;;;;;5170011;28;20636;-55
2023/04/21 04:01:34;;;;;;;16.73;9.30;;;9.20;99.90;;;;;;5185977;28;20184;-51
2023/04/21 04:04:04;;;;;;;15.80;9.63;;;9.20;99.90;;;;;;5181993;28;20997;-50
2023/04/21 04:06:35;;;;;;;10.87;8.53;;;9.10;99.90;;;;;;5181076;28;20922;-50
2023/04/21 04:09:07;;;;;;;18.10;9.40;;;9.20;99.90;;;;;;5181336;28;20208;-52
2023/04/21 04:11:38;;;;;;;13.90;9.27;;;9.10;99.90;;;;;;5179898;28;20259;-50
2023/04/21 04:14:09;;;;;;;13.73;10.00;;;9.10;99.90;;;;;;5183917;28;20879;-50
2023/04/21 04:16:40;;;;;;;16.70;8.30;;;9.10;99.90;;;;;;5177966;28;20234;-51
2023/04/21 04:19:11;;;;;;;14.20;10.40;;;9.10;99.90;;;;;;5179909;28;20242;-50
2023/04/21 04:21:42;;;;;;;18.57;10.43;;;9.10;99.90;;;;;;5201482;28;20879;-50
2023/04/21 04:24:14;;;;;;;14.10;9.23;;;9.20;99.90;;;;;;5183106;28;20541;-51
2023/04/21 04:26:45;;;;;;;12.50;9.80;;;9.20;99.90;;;;;;5182148;28;20443;-50
2023/04/21 04:29:16;;;;;;;16.73;10.23;;;9.20;99.90;;;;;;5181099;28;20470;-50
2023/04/21 04:31:49;;;;;;;12.90;10.23;;;9.20;99.90;;;;;;5172530;28;20650;-51
2023/04/21 04:34:19;;;;;;;16.10;9.87;;;9.20;99.90;;;;;;5174511;28;21108;-50
2023/04/21 04:36:50;;;;;;;16.67;9.80;;;9.20;99.90;;;;;;5174814;28;20435;-51
2023/04/21 04:39:21;;;;;;;13.63;10.80;;;9.20;99.90;;;;;;5176675;28;20278;-51
2023/04/21 04:41:52;;;;;;;18.07;9.70;;;9.30;99.90;;;;;;5171757;28;20251;-54
2023/04/21 04:44:24;;;;;;;13.80;9.07;;;9.30;99.90;;;;;;5181693;28;20510;-51
2023/04/21 04:46:55;;;;;;;11.20;9.87;;;9.40;99.90;;;;;;5185749;28;20431;-51
2023/04/21 04:49:26;;;;;;;21.83;10.07;;;9.80;99.90;;;;;;5175803;28;20440;-50
2023/04/21 04:51:56;;;;;;;15.23;9.80;;;10.00;99.90;;;;;;5166938;28;20446;-50
2023/04/21 04:54:28;;;;;;;13.70;9.37;;;10.20;99.90;;;;;;5176832;28;20263;-51
2023/04/21 04:56:58;;;;;;;11.03;9.03;;;10.40;99.90;;;;;;5174377;28;20181;-52
2023/04/21 04:59:30;;;;;;;13.67;9.73;;;10.60;99.90;;;;;;5198907;28;20497;-51
2023/04/21 05:02:01;;;;;;;19.30;10.57;;;10.70;99.90;;;;;;5177295;28;20188;-52
2023/04/21 05:04:33;;;;;;;16.00;9.20;;;10.80;99.90;;;;;;5180672;28;20517;-51
2023/04/21 05:07:06;;;;;;;17.50;8.90;;;10.90;99.90;;;;;;5178852;28;20431;-50
2023/04/21 05:09:37;;;;;;;22.73;10.13;;;11.10;99.90;;;;;;5172931;28;20916;-52
2023/04/21 05:12:07;;;;;;;17.33;9.67;;;11.40;99.90;;;;;;5175011;28;20555;-50
2023/04/21 05:14:38;;;;;;;10.37;8.57;;;11.70;99.90;;;;;;5170820;28;20845;-50
2023/04/21 05:17:09;;;;;;;17.10;8.60;;;12.50;99.90;;;;;;5182696;28;20184;-50
2023/04/21 05:19:39;;;;;;;16.47;10.30;;;13.20;99.90;;;;;;5194487;28;20209;-50
2023/04/21 05:22:10;;;;;;;19.03;9.20;;;13.60;99.90;;;;;;5170406;28;20191;-51
2023/04/21 05:24:41;;;;;;;19.27;10.10;;;14.00;98.80;;;;;;5177155;28;20236;-51
2023/04/21 05:27:12;;;;;;;16.63;9.70;;;14.70;95.20;;;;;;5178743;28;20656;-50
2023/04/21 05:29:42;;;;;;;16.20;9.03;;;15.20;90.20;;;;;;5175092;28;20436;-50
2023/04/21 05:32:14;;;;;;;15.67;9.97;;;15.50;84.60;;;;;;5172029;28;20701;-52
2023/04/21 05:34:44;;;;;;;14.20;9.03;;;15.70;80.10;;;;;;5177895;28;20180;-51
2023/04/21 05:37:15;;;;;;;15.00;8.73;;;16.10;78.00;;;;;;5174144;28;21003;-53
2023/04/21 05:39:45;;;;;;;12.90;8.57;;;16.60;72.40;;;;;;5166372;28;20185;-51
2023/04/21 05:42:17;;;;;;;15.10;8.50;;;16.80;68.90;;;;;;5183961;28;20698;-50
2023/04/21 05:44:47;;;;;;;14.03;9.43;;;16.80;66.70;;;;;;5176438;28;20561;-51
2023/04/21 05:47:18;;;;;;;15.90;8.50;;;17.00;65.70;;;;;;5163632;28;21788;-49
2023/04/21 05:49:52;;;;;;;12.70;8.77;;;17.20;63.60;;;;;;5174030;28;20218;-51
2023/04/21 05:52:23;;;;;;;15.43;9.50;;;17.60;61.80;;;;;;5169370;28;20175;-51
2023/04/21 05:54:53;;;;;;;17.20;9.30;;;17.40;60.60;;;;;;5149345;28;20442;-51
2023/04/21 05:57:24;;;;;;;14.13;9.37;;;17.50;60.00;;;;;;5169801;28;20204;-51
2023/04/21 05:59:55;;;;;;;12.53;9.30;;;18.00;59.00;;;;;;5174397;28;20254;-51
2023/04/21 06:02:25;;;;;;;18.33;8.70;;;18.40;57.40;;;;;;5173442;28;20184;-52
2023/04/21 06:04:56;;;;;;;16.33;8.40;;;18.20;56.60;;;;;;5169911;28;20205;-50
2023/04/21 06:07:26;;;;;;;10.47;8.83;;;18.10;55.80;;;;;;5173951;28;20196;-53
2023/04/21 06:09:57;;;;;;;14.77;9.67;;;18.10;56.50;;;;;;5175922;28;20773;-50
2023/04/21 06:12:28;;;;;;;10.40;8.30;;;18.30;55.30;;;;;;5179200;28;20181;-51
2023/04/21 06:14:58;;;;;;;11.07;8.37;;;18.80;54.80;;;;;;5177983;28;20243;-52
2023/04/21 06:17:29;;;;;;;17.10;8.87;;;19.00;53.20;;;;;;5174399;28;20267;-50
2023/04/21 06:20:00;;;;;;;11.40;9.00;;;18.80;53.10;;;;;;5177564;28;20180;-51
2023/04/21 06:22:31;;;;;;;15.23;8.87;;;18.80;52.70;;;;;;5172702;28;20187;-50
2023/04/21 06:25:03;;;;;;;16.83;9.20;;;19.10;52.50;;;;;;5179351;28;20204;-51
2023/04/21 06:27:34;;;;;;;15.30;9.73;;;19.50;51.80;;;;;;5173134;28;20458;-51
2023/04/21 06:30:05;;;;;;;12.50;9.03;;;19.70;50.60;;;;;;5174344;28;20427;-51
2023/04/21 06:32:36;;;;;;;11.77;8.90;;;19.40;49.40;;;;;;5176147;28;20181;-51
2023/04/21 06:35:07;;;;;;;11.40;9.10;;;19.10;50.70;;;;;;5176138;28;20442;-50
2023/04/21 06:37:37;;;;;;;13.33;9.13;;;19.20;50.10;;;;;;5179411;28;20295;-51
2023/04/21 06:40:08;;;;;;;11.03;8.97;;;19.50;49.30;;;;;;5179433;28;20447;-50
2023/04/21 06:42:39;;;;;;;15.93;9.10;;;19.80;49.00;;;;;;5156277;28;20211;-51
2023/04/21 06:45:10;;;;;;;12.20;9.50;;;19.70;48.40;;;;;;5189819;28;20211;-50
2023/04/21 06:47:40;;;;;;;14.77;8.60;;;19.90;48.80;;;;;;5174920;28;20650;-50
2023/04/21 06:50:12;;;;;;;11.80;8.27;;;20.40;47.20;;;;;;5174502;28;20181;-51
2023/04/21 06:52:42;;;;;;;17.83;8.50;;;21.00;47.00;;;;;;5176839;28;20184;-51
2023/04/21 06:55:13;;;;;;;13.87;8.60;;;21.50;45.30;;;;;;5173299;28;20470;-52
2023/04/21 06:57:43;;;;;;;12.00;8.40;;;22.20;44.40;;;;;;5175820;28;20215;-51
2023/04/21 07:00:14;;;;;;;12.13;8.77;;;21.80;43.70;;;;;;5170088;28;20285;-50
2023/04/21 07:02:45;;;;;;;10.90;8.67;;;21.90;43.70;;;;;;5173941;28;20193;-49
2023/04/21 07:05:16;;;;;;;15.30;9.20;;;21.80;43.00;;;;;;5187181;28;21421;-51
2023/04/21 07:07:46;;;;;;;9.73;8.10;;;21.90;43.60;;;;;;5172434;28;20219;-50
2023/04/21 07:10:18;;;;;;;15.43;9.20;;;22.30;42.80;;;;;;5172662;28;20203;-51
2023/04/21 07:12:49;;;;;;;12.30;9.07;;;22.60;41.70;;;;;;5177423;28;20696;-52
2023/04/21 07:15:20;;;;;;;19.80;9.50;;;22.10;42.20;;;;;;5175440;28;20471;-51
2023/04/21 07:17:50;;;;;;;13.23;8.90;;;21.90;42.20;;;;;;5178583;28;20307;-51
2023/04/21 07:20:21;;;;;;;15.13;8.67;;;21.90;42.80;;;;;;5177594;28;20187;-51
2023/04/21 07:22:52;;;;;;;15.00;9.10;;;22.20;42.00;;;;;;5141433;28;20230;-51
2023/04/21 07:25:22;;;;;;;12.90;8.80;;;21.90;41.80;;;;;;5174070;28;20217;-49
2023/04/21 07:27:53;;;;;;;10.60;8.03;;;21.50;42.20;;;;;;5174757;28;20204;-51
2023/04/21 07:30:23;;;;;;;12.37;9.00;;;21.50;43.00;;;;;;5176477;28;20176;-49
2023/04/21 07:32:54;;;;;;;12.77;8.40;;;21.30;42.30;;;;;;5173116;28;20664;-50
2023/04/21 07:35:25;;;;;;;18.37;7.63;;;21.40;42.70;;;;;;5173560;28;20189;-50
2023/04/21 07:37:56;;;;;;;10.97;7.97;;;21.80;42.80;;;;;;5171740;28;20196;-50
2023/04/21 07:40:26;;;;;;;12.60;9.70;;;22.10;41.80;;;;;;5176886;28;20435;-49
2023/04/21 07:42:57;;;;;;;18.17;8.63;;;22.00;41.90;;;;;;5179947;28;20196;-50
2023/04/21 07:45:28;;;;;;;17.30;9.70;;;22.60;41.30;;;;;;5180194;28;20208;-51
2023/04/21 07:47:58;;;;;;;14.47;9.30;;;23.00;40.50;;;;;;5179881;28;20209;-50
2023/04/21 07:50:29;;;;;;;15.13;7.80;;;23.10;39.70;;;;;;5180583;28;20176;-51
2023/04/21 07:53:00;;;;;;;10.83;8.37;;;23.50;39.70;;;;;;5182805;28;20190;-50
2023/04/21 07:55:31;;;;;;;10.60;7.90;;;23.50;38.80;;;;;;5181451;28;20188;-49
2023/04/21 07:58:03;;;;;;;13.93;8.23;;;23.80;38.90;;;;;;5179084;28;20793;-49
2023/04/21 08:00:34;;;;;;;12.23;9.00;;;23.30;38.90;;;;;;5181606;28;20267;-49
2023/04/21 08:03:05;;;;;;;15.10;9.20;;;23.00;39.40;;;;;;5182473;28;20543;-50
2023/04/21 08:05:36;;;;;;;11.07;8.20;;;23.00;39.50;;;;;;5183103;28;20217;-50
2023/04/21 08:08:06;;;;;;;13.57;8.90;;;23.00;39.80;;;;;;5172322;28;20208;-51
2023/04/21 08:10:37;;;;;;;16.83;7.80;;;22.20;39.10;;;;;;5157511;28;20190;-52
2023/04/21 08:13:08;;;;;;;11.60;8.40;;;22.00;40.80;;;;;;5183090;28;20708;-49
2023/04/21 08:15:38;;;;;;;13.27;8.17;;;22.10;40.30;;;;;;5184217;28;20287;-52
2023/04/21 08:18:09;;;;;;;15.03;8.80;;;22.50;40.40;;;;;;5186094;28;20212;-54
2023/04/21 08:20:39;;;;;;;12.53;8.90;;;22.90;39.90;;;;;;5171197;28;20650;-52
2023/04/21 08:23:10;;;;;;;7.80;6.63;;;23.00;40.10;;;;;;5167023;28;20184;-50
2023/04/21 08:25:41;;;;;;;15.60;8.70;;;22.90;39.80;;;;;;5167412;28;20299;-53
2023/04/21 08:28:13;;;;;;;9.10;8.20;;;22.20;40.30;;;;;;5181586;28;20988;-51
2023/04/21 08:30:43;;;;;;;9.20;7.67;;;21.30;41.30;;;;;;5176588;28;20645;-49
2023/04/21 08:33:14;;;;;;;10.97;7.80;;;20.80;43.00;;;;;;5180381;28;20488;-50
2023/04/21 08:35:45;;;;;;;9.17;7.60;;;20.60;43.60;;;;;;5183080;28;20180;-51
2023/04/21 08:38:15;;;;;;;12.83;7.93;;;20.20;44.10;;;;;;5183709;28;20647;-49
2023/04/21 08:40:46;;;;;;;16.90;8.20;;;19.80;44.80;;;;;;5182689;28;20188;-50
2023/04/21 08:43:18;;;;;;;10.80;7.70;;;19.60;45.30;;;;;;5181717;28;20180;-50
2023/04/21 08:45:50;;;;;;;8.60;7.73;;;19.20;45.70;;;;;;5178769;28;20537;-50
2023/04/21 08:48:22;;;;;;;11.17;8.30;;;18.90;46.40;;;;;;5180264;28;20459;-50
2023/04/21 08:50:53;;;;;;;8.70;7.43;;;18.10;47.00;;;;;;5179068;28;20459;-51
2023/04/21 08:53:24;;;;;;;15.23;8.47;;;18.00;48.50;;;;;;5180156;28;20475;-51
2023/04/21 08:55:55;;;;;;;12.60;8.30;;;17.70;48.70;;;;;;5180681;28;20237;-50
2023/04/21 08:58:26;;;;;;;14.43;8.60;;;17.20;49.70;;;;;;5180748;28;20217;-50
2023/04/21 09:00:57;;;;;;;9.03;7.77;;;17.00;50.20;;;;;;5181398;28;21540;-51
2023/04/21 09:03:28;;;;;;;17.27;8.40;;;16.80;50.70;;;;;;5166393;28;20168;-50
2023/04/21 09:06:04;;;;;;;9.10;7.87;;;16.70;51.30;;;;;;5181381;28;20543;-52
2023/04/21 09:08:43;;;;;;;14.77;7.77;;;16.70;51.40;;;;;;5182092;28;20479;-52
2023/04/21 09:11:14;;;;;;;9.80;8.37;;;16.70;51.60;;;;;;5183036;28;20423;-51
2023/04/21 09:13:44;;;;;;;14.60;7.73;;;16.80;51.30;;;;;;5179201;28;20859;-49
2023/04/21 09:16:19;;;;;;;11.27;8.20;;;16.90;51.20;;;;;;5180764;28;20632;-49
2023/04/21 09:18:50;;;;;;;11.30;7.23;;;17.00;51.30;;;;;;5180924;28;20207;-49
2023/04/21 09:21:28;;;;;;;11.40;7.83;;;17.00;51.00;;;;;;5178054;28;20440;-48
2023/04/21 09:24:04;;;;;;;10.80;8.23;;;16.90;51.70;;;;;;5183280;28;20212;-49
2023/04/21 09:26:35;;;;;;;8.23;7.40;;;16.80;51.80;;;;;;5176230;28;20443;-49
2023/04/21 09:29:07;;;;;;;10.03;7.67;;;16.80;52.30;;;;;;5174828;28;20835;-50
2023/04/21 09:31:38;;;;;;;12.80;7.20;;;16.80;52.40;;;;;;5165138;28;20239;-49
2023/04/21 09:34:25;;;;;;;10.33;8.10;;;16.90;52.90;;;;;;5173177;28;20444;-48
2023/04/21 09:37:03;;;;;;;8.83;6.60;;;17.00;51.40;;;;;;5171262;28;20192;-52
2023/04/21 09:39:34;;;;;;;10.10;7.50;;;16.90;50.80;;;;;;5191793;28;20784;-47
2023/04/21 09:42:05;;;;;;;7.83;7.03;;;17.00;51.40;;;;;;5171774;28;21065;-51
2023/04/21 09:44:37;;;;;;;8.00;7.20;;;17.20;50.80;;;;;;5177865;28;20586;-49
2023/04/21 09:47:11;;;;;;;11.80;7.50;;;17.30;50.20;;;;;;5175857;28;20895;-49
2023/04/21 09:49:43;;;;;;;11.37;7.30;;;17.30;50.40;;;;;;5171549;28;20481;-52
2023/04/21 09:52:15;;;;;;;11.47;7.53;;;17.40;50.80;;;;;;5174439;28;20438;-53
2023/04/21 09:54:50;;;;;;;9.33;6.83;;;17.60;50.30;;;;;;5181914;28;20538;-51
2023/04/21 09:57:24;;;;;;;10.67;6.80;;;17.70;50.60;;;;;;5181528;28;20525;-51
2023/04/21 10:00:04;;;;;;;8.30;6.77;;;17.90;50.70;;;;;;5181636;28;20434;-50
2023/04/21 10:02:47;;;;;;;12.13;6.73;;;18.00;50.10;;;;;;5178178;28;20449;-51
2023/04/21 10:05:18;;;;;;;8.00;6.83;;;18.00;50.30;;;;;;5175747;28;20849;-50
2023/04/21 10:07:49;;;;;;;11.77;6.50;;;18.10;50.30;;;;;;5173427;28;20458;-51
2023/04/21 10:10:26;;;;;;;7.33;5.70;;;18.10;49.00;;;;;;5177723;28;20665;-50
2023/04/21 10:12:58;;;;;;;13.33;6.70;;;18.30;47.40;;;;;;5182693;28;20441;-51
2023/04/21 10:15:37;;;;;;;11.40;6.30;;;18.20;47.50;;;;;;5173466;28;20482;-50
2023/04/21 10:18:23;;;;;;;6.20;5.60;;;18.10;47.50;;;;;;5178587;28;20447;-50
2023/04/21 10:21:09;;;;;;;10.33;6.03;;;18.20;47.70;;;;;;5175729;28;20458;-49
2023/04/21 10:23:52;;;;;;;6.50;5.90;;;18.20;47.10;;;;;;5179905;28;20435;-51
2023/04/21 10:26:28;;;;;;;6.87;5.70;;;18.30;46.80;;;;;;5178234;28;20514;-49
2023/04/21 10:29:01;;;;;;;6.23;5.60;;;18.20;46.70;;;;;;5180013;28;20467;-50
2023/04/21 10:31:33;;;;;;;7.63;6.37;;;18.20;46.20;;;;;;5179943;28;20462;-48
2023/04/21 10:34:07;;;;;;;6.63;5.90;;;18.30;45.90;;;;;;5182379;28;20470;-50
2023/04/21 10:36:44;;;;;;;12.33;6.20;;;18.50;46.10;;;;;;5179170;28;20440;-51
2023/04/21 10:39:50;;;;;;;5.87;5.37;;;18.50;45.90;;;;;;5170965;28;20459;-50
2023/04/21 10:42:23;;;;;;;7.10;5.20;;;18.60;45.90;;;;;;5172818;28;20442;-50
2023/04/21 10:44:57;;;;;;;14.13;5.73;;;18.60;45.30;;;;;;5197989;28;21051;-50
2023/04/21 10:47:35;;;;;;;8.77;5.93;;;18.70;45.60;;;;;;5176721;28;20495;-51
2023/04/21 10:50:16;;;;;;;10.47;6.30;;;18.70;45.20;;;;;;5178171;28;20514;-52
2023/04/21 10:52:53;;;;;;;5.80;5.20;;;18.70;45.20;;;;;;5176937;28;20449;-52
2023/04/21 10:55:28;;;;;;;9.37;5.70;;;18.60;45.80;;;;;;5180296;28;20509;-52
2023/04/21 10:58:02;;;;;;;6.50;5.63;;;18.70;46.50;;;;;;5174271;28;20489;-49
2023/04/21 11:00:32;;;;;;;7.60;5.50;;;18.80;45.30;;;;;;5182322;28;20470;-49
2023/04/21 11:03:05;;;;;;;16.30;6.47;;;18.70;44.00;;;;;;5180187;28;20415;-51
2023/04/21 11:05:40;;;;;;;8.80;5.73;;;18.70;44.50;;;;;;5180760;28;20216;-50
2023/04/21 11:08:13;;;;;;;8.87;6.17;;;18.80;44.70;;;;;;5175017;28;20597;-50
2023/04/21 11:10:51;;;;;;;6.70;5.80;;;18.70;44.40;;;;;;5174359;28;20448;-51
2023/04/21 11:13:32;;;;;;;6.00;5.50;;;18.60;44.40;;;;;;5177488;28;20435;-49
2023/04/21 11:16:05;;;;;;;8.70;5.47;;;18.70;44.90;;;;;;5178597;28;20447;-51
2023/04/21 11:18:38;;;;;;;10.20;6.17;;;18.90;45.10;;;;;;5173268;28;20466;-49
2023/04/21 11:21:16;;;;;;;14.47;6.13;;;18.90;44.90;;;;;;5163710;28;20922;-50
2023/04/21 11:23:54;;;;;;;6.83;4.97;;;18.90;45.30;;;;;;5175106;28;20517;-51
2023/04/21 11:26:38;;;;;;;7.70;5.73;;;18.90;44.30;;;;;;5175414;28;20434;-52
2023/04/21 11:29:10;;;;;;;6.67;5.67;;;19.00;44.70;;;;;;5193161;28;20473;-50
2023/04/21 11:31:44;;;;;;;6.97;6.17;;;19.10;44.20;;;;;;5178769;28;20519;-51
2023/04/21 11:34:18;;;;;;;10.90;5.23;;;19.30;43.70;;;;;;5181580;28;20943;-50
2023/04/21 11:36:49;;;;;;;7.57;6.17;;;19.30;43.60;;;;;;5182826;28;20446;-51
2023/04/21 11:39:20;;;;;;;9.03;5.67;;;19.10;44.40;;;;;;5173112;28;20470;-49
2023/04/21 11:41:51;;;;;;;7.70;5.70;;;19.20;44.60;;;;;;5180405;28;20271;-50
2023/04/21 11:44:41;;;;;;;10.37;6.30;;;19.20;43.00;;;;;;5179323;28;20485;-52
2023/04/21 11:47:15;;;;;;;7.97;5.60;;;19.30;43.10;;;;;;5175716;28;20637;-50
2023/04/21 11:49:57;;;;;;;10.00;5.70;;;19.40;42.90;;;;;;5174752;28;20460;-50
2023/04/21 11:52:31;;;;;;;6.27;5.33;;;19.20;41.80;;;;;;5177239;28;20440;-50
2023/04/21 11:55:04;;;;;;;5.63;5.13;;;19.20;41.80;;;;;;5181193;28;20435;-51
2023/04/21 11:57:35;;;;;;;5.80;5.30;;;19.20;42.00;;;;;;5175422;28;20467;-49
2023/04/21 12:00:12;;;;;;;6.17;5.17;;;19.20;41.60;;;;;;5174327;28;20474;-49
2023/04/21 12:02:43;;;;;;;9.97;5.47;;;19.00;41.60;;;;;;5176629;28;20526;-48
2023/04/21 12:05:14;;;;;;;5.67;5.17;;;18.80;43.30;;;;;;5178612;28;20557;-49
2023/04/21 12:07:50;;;;;;;6.10;5.13;;;18.90;42.30;;;;;;5185536;28;20463;-51
2023/04/21 12:10:21;;;;;;;6.73;6.00;;;19.00;43.00;;;;;;5176588;28;20192;-48
2023/04/21 12:12:54;;;;;;;13.87;6.30;;;19.20;43.40;;;;;;5173146;28;20804;-49
2023/04/21 12:15:25;;;;;;;20.93;5.77;;;19.30;41.00;;;;;;5181925;28;20192;-52
2023/04/21 12:17:55;;;;;;;14.67;5.57;;;19.40;40.30;;;;;;5177852;28;20474;-51
2023/04/21 12:20:28;;;;;;;11.03;5.97;;;19.30;39.60;;;;;;5181926;28;20188;-49
2023/04/21 12:22:59;;;;;;;7.50;5.87;;;19.50;40.70;;;;;;5179105;28;20183;-49
2023/04/21 12:25:30;;;;;;;6.27;5.40;;;19.60;41.00;;;;;;5177594;28;21043;-50
2023/04/21 12:28:01;;;;;;;6.37;5.77;;;19.60;41.20;;;;;;5175502;28;20455;-49
2023/04/21 12:30:31;;;;;;;7.83;5.67;;;19.40;41.10;;;;;;5181053;28;20661;-49
2023/04/21 12:33:02;;;;;;;8.70;5.50;;;19.30;41.90;;;;;;5198815;28;20642;-49
2023/04/21 12:35:33;;;;;;;6.07;5.63;;;19.30;41.80;;;;;;5176944;28;20625;-47
2023/04/21 12:38:04;;;;;;;6.03;5.40;;;19.40;39.20;;;;;;5175352;28;20208;-49
2023/04/21 12:40:34;;;;;;;7.30;5.30;;;19.40;40.70;;;;;;5181959;28;20200;-49
2023/04/21 12:43:05;;;;;;;5.30;4.80;;;19.50;40.00;;;;;;5197839;28;20795;-49
2023/04/21 12:45:36;;;;;;;5.17;4.60;;;19.30;39.70;;;;;;5194616;28;20642;-50
2023/04/21 12:48:07;;;;;;;7.90;5.40;;;19.20;40.60;;;;;;5198263;28;20561;-51
2023/04/21 12:50:38;;;;;;;6.53;4.30;;;19.30;40.90;;;;;;5175492;28;20233;-52
2023/04/21 12:53:08;;;;;;;8.10;5.30;;;19.50;40.80;;;;;;5182044;28;20199;-49
2023/04/21 12:55:39;;;;;;;6.10;5.00;;;19.70;40.70;;;;;;5171045;28;20537;-49
2023/04/21 12:58:11;;;;;;;6.83;4.70;;;19.70;40.70;;;;;;5178372;28;20215;-50
2023/04/21 13:00:42;;;;;;;4.80;4.50;;;19.60;41.10;;;;;;5179687;28;20188;-48
2023/04/21 13:03:12;;;;;;;5.20;4.80;;;19.80;41.30;;;;;;5178239;28;20469;-48